sensor_id;sensor_type;location;lat;lon;timestamp;temperature;humidity
56725;DHT22;42608;52.776;6.968;2024-02-21T00:00:49;9.20;99.90
56725;DHT22;42608;52.776;6.968;2024-02-21T00:03:14;9.20;99.90
56725;DHT22;42608;52.776;6.968;2024-02-21T00:05:43;9.20;99.90
56725;DHT22;42608;52.776;6.968;2024-02-21T00:08:08;9.20;99.90
56725;DHT22;42608;52.776;6.968;2024-02-21T00:10:34;9.20;99.90
56725;DHT22;42608;52.776;6.968;2024-02-21T00:13:00;9.20;99.90
56725;DHT22;42608;52.776;6.968;2024-02-21T00:15:26;9.20;99.90
56725;DHT22;42608;52.776;6.968;2024-02-21T00:17:54;9.20;99.90
56725;DHT22;42608;52.776;6.968;2024-02-21T00:20:20;9.20;99.90
56725;DHT22;42608;52.776;6.968;2024-02-21T00:22:46;9.20;99.90
56725;DHT22;42608;52.776;6.968;2024-02-21T00:25:11;9.20;99.90
56725;DHT22;42608;52.776;6.968;2024-02-21T00:27:37;9.20;99.90
56725;DHT22;42608;52.776;6.968;2024-02-21T00:30:04;9.20;99.90
56725;DHT22;42608;52.776;6.968;2024-02-21T00:32:30;9.20;99.90
56725;DHT22;42608;52.776;6.968;2024-02-21T00:34:55;9.20;99.90
56725;DHT22;42608;52.776;6.968;2024-02-21T00:37:21;9.20;99.90
56725;DHT22;42608;52.776;6.968;2024-02-21T00:39:46;9.20;99.90
56725;DHT22;42608;52.776;6.968;2024-02-21T00:42:12;9.30;99.90
56725;DHT22;42608;52.776;6.968;2024-02-21T00:44:37;9.20;99.90
56725;DHT22;42608;52.776;6.968;2024-02-21T00:47:03;9.30;99.90
56725;DHT22;42608;52.776;6.968;2024-02-21T00:49:28;9.30;99.90
56725;DHT22;42608;52.776;6.968;2024-02-21T00:51:54;9.30;99.90
56725;DHT22;42608;52.776;6.968;2024-02-21T00:54:20;9.30;99.90
56725;DHT22;42608;52.776;6.968;2024-02-21T00:56:45;9.30;99.90
56725;DHT22;42608;52.776;6.968;2024-02-21T00:59:11;9.30;99.90
56725;DHT22;42608;52.776;6.968;2024-02-21T01:01:38;9.30;99.90
56725;DHT22;42608;52.776;6.968;2024-02-21T01:04:07;9.30;99.90
56725;DHT22;42608;52.776;6.968;2024-02-21T01:06:32;9.30;99.90
56725;DHT22;42608;52.776;6.968;2024-02-21T01:08:58;9.30;99.90
56725;DHT22;42608;52.776;6.968;2024-02-21T01:11:23;9.30;99.90
56725;DHT22;42608;52.776;6.968;2024-02-21T01:13:55;9.30;99.90
56725;DHT22;42608;52.776;6.968;2024-02-21T01:16:20;9.30;99.90
56725;DHT22;42608;52.776;6.968;2024-02-21T01:18:46;9.30;99.90
56725;DHT22;42608;52.776;6.968;2024-02-21T01:21:11;9.30;99.90
56725;DHT22;42608;52.776;6.968;2024-02-21T01:23:40;9.30;99.90
56725;DHT22;42608;52.776;6.968;2024-02-21T01:26:06;9.30;99.90
56725;DHT22;42608;52.776;6.968;2024-02-21T01:28:34;9.30;99.90
56725;DHT22;42608;52.776;6.968;2024-02-21T01:30:59;9.20;99.90
56725;DHT22;42608;52.776;6.968;2024-02-21T01:33:25;9.30;99.90
56725;DHT22;42608;52.776;6.968;2024-02-21T01:35:50;9.30;99.90
56725;DHT22;42608;52.776;6.968;2024-02-21T01:38:16;9.30;99.90
56725;DHT22;42608;52.776;6.968;2024-02-21T01:40:41;9.20;99.90
56725;DHT22;42608;52.776;6.968;2024-02-21T01:43:17;9.20;99.90
56725;DHT22;42608;52.776;6.968;2024-02-21T01:45:50;9.20;99.90
56725;DHT22;42608;52.776;6.968;2024-02-21T01:48:18;9.20;99.90
56725;DHT22;42608;52.776;6.968;2024-02-21T01:50:44;9.20;99.90
56725;DHT22;42608;52.776;6.968;2024-02-21T01:53:10;9.20;99.90
56725;DHT22;42608;52.776;6.968;2024-02-21T01:55:43;9.20;99.90
56725;DHT22;42608;52.776;6.968;2024-02-21T01:58:16;9.20;99.90
56725;DHT22;42608;52.776;6.968;2024-02-21T02:00:42;9.20;99.90
56725;DHT22;42608;52.776;6.968;2024-02-21T02:03:11;9.20;99.90
56725;DHT22;42608;52.776;6.968;2024-02-21T02:05:45;9.20;99.90
56725;DHT22;42608;52.776;6.968;2024-02-21T02:08:20;9.20;99.90
56725;DHT22;42608;52.776;6.968;2024-02-21T02:10:47;9.20;99.90
56725;DHT22;42608;52.776;6.968;2024-02-21T02:13:13;9.20;99.90
56725;DHT22;42608;52.776;6.968;2024-02-21T02:15:43;9.20;99.90
56725;DHT22;42608;52.776;6.968;2024-02-21T02:18:09;9.20;99.90
56725;DHT22;42608;52.776;6.968;2024-02-21T02:20:35;9.20;99.90
56725;DHT22;42608;52.776;6.968;2024-02-21T02:23:01;9.20;99.90
56725;DHT22;42608;52.776;6.968;2024-02-21T02:25:28;9.20;99.90
56725;DHT22;42608;52.776;6.968;2024-02-21T02:27:54;9.20;99.90
56725;DHT22;42608;52.776;6.968;2024-02-21T02:30:19;9.20;99.90
56725;DHT22;42608;52.776;6.968;2024-02-21T02:32:45;9.20;99.90
56725;DHT22;42608;52.776;6.968;2024-02-21T02:35:11;9.20;99.90
56725;DHT22;42608;52.776;6.968;2024-02-21T02:37:49;9.10;99.90
56725;DHT22;42608;52.776;6.968;2024-02-21T02:40:15;9.10;99.90
56725;DHT22;42608;52.776;6.968;2024-02-21T02:42:40;9.10;99.90
56725;DHT22;42608;52.776;6.968;2024-02-21T02:45:06;9.10;99.90
56725;DHT22;42608;52.776;6.968;2024-02-21T02:47:32;9.00;99.90
56725;DHT22;42608;52.776;6.968;2024-02-21T02:49:57;9.00;99.90
56725;DHT22;42608;52.776;6.968;2024-02-21T02:52:23;9.00;99.90
56725;DHT22;42608;52.776;6.968;2024-02-21T02:54:48;9.00;99.90
56725;DHT22;42608;52.776;6.968;2024-02-21T02:57:18;9.00;99.90
56725;DHT22;42608;52.776;6.968;2024-02-21T02:59:50;8.90;99.90
56725;DHT22;42608;52.776;6.968;2024-02-21T03:02:16;8.90;99.90
56725;DHT22;42608;52.776;6.968;2024-02-21T03:04:41;8.90;99.90
56725;DHT22;42608;52.776;6.968;2024-02-21T03:07:07;8.90;99.90
56725;DHT22;42608;52.776;6.968;2024-02-21T03:09:32;8.90;99.90
56725;DHT22;42608;52.776;6.968;2024-02-21T03:11:58;8.90;99.90
56725;DHT22;42608;52.776;6.968;2024-02-21T03:14:31;8.90;99.90
56725;DHT22;42608;52.776;6.968;2024-02-21T03:16:57;8.80;99.90
56725;DHT22;42608;52.776;6.968;2024-02-21T03:19:23;8.80;99.90
56725;DHT22;42608;52.776;6.968;2024-02-21T03:21:49;8.90;99.90
56725;DHT22;42608;52.776;6.968;2024-02-21T03:24:15;8.80;99.90
56725;DHT22;42608;52.776;6.968;2024-02-21T03:26:41;8.80;99.90
56725;DHT22;42608;52.776;6.968;2024-02-21T03:29:06;8.80;99.90
56725;DHT22;42608;52.776;6.968;2024-02-21T03:31:32;8.80;99.90
56725;DHT22;42608;52.776;6.968;2024-02-21T03:33:58;8.80;99.90
56725;DHT22;42608;52.776;6.968;2024-02-21T03:36:30;8.80;99.90
56725;DHT22;42608;52.776;6.968;2024-02-21T03:38:55;8.80;99.90
56725;DHT22;42608;52.776;6.968;2024-02-21T03:41:21;8.80;99.90
56725;DHT22;42608;52.776;6.968;2024-02-21T03:43:46;8.80;99.90
56725;DHT22;42608;52.776;6.968;2024-02-21T03:46:15;8.80;99.90
56725;DHT22;42608;52.776;6.968;2024-02-21T03:48:41;8.80;99.90
56725;DHT22;42608;52.776;6.968;2024-02-21T03:51:06;8.80;99.90
56725;DHT22;42608;52.776;6.968;2024-02-21T03:53:32;8.80;99.90
56725;DHT22;42608;52.776;6.968;2024-02-21T03:56:00;8.80;99.90
56725;DHT22;42608;52.776;6.968;2024-02-21T03:58:28;8.80;99.90
56725;DHT22;42608;52.776;6.968;2024-02-21T04:00:54;8.80;99.90
56725;DHT22;42608;52.776;6.968;2024-02-21T04:03:19;8.80;99.90
56725;DHT22;42608;52.776;6.968;2024-02-21T04:05:48;8.80;99.90
56725;DHT22;42608;52.776;6.968;2024-02-21T04:08:13;8.80;99.90
56725;DHT22;42608;52.776;6.968;2024-02-21T04:10:39;8.80;99.90
56725;DHT22;42608;52.776;6.968;2024-02-21T04:13:06;8.80;99.90
56725;DHT22;42608;52.776;6.968;2024-02-21T04:15:31;8.80;99.90
56725;DHT22;42608;52.776;6.968;2024-02-21T04:17:57;8.80;99.90
56725;DHT22;42608;52.776;6.968;2024-02-21T04:20:22;8.80;99.90
56725;DHT22;42608;52.776;6.968;2024-02-21T04:22:48;8.80;99.90
56725;DHT22;42608;52.776;6.968;2024-02-21T04:25:14;8.80;99.90
56725;DHT22;42608;52.776;6.968;2024-02-21T04:27:40;8.80;99.90
56725;DHT22;42608;52.776;6.968;2024-02-21T04:30:06;8.80;99.90
56725;DHT22;42608;52.776;6.968;2024-02-21T04:32:31;8.80;99.90
56725;DHT22;42608;52.776;6.968;2024-02-21T04:34:57;8.80;99.90
56725;DHT22;42608;52.776;6.968;2024-02-21T04:37:23;8.80;99.90
56725;DHT22;42608;52.776;6.968;2024-02-21T04:39:49;8.80;99.90
56725;DHT22;42608;52.776;6.968;2024-02-21T04:42:14;8.80;99.90
56725;DHT22;42608;52.776;6.968;2024-02-21T04:44:40;8.80;99.90
56725;DHT22;42608;52.776;6.968;2024-02-21T04:47:10;8.80;99.90
56725;DHT22;42608;52.776;6.968;2024-02-21T04:49:35;8.80;99.90
56725;DHT22;42608;52.776;6.968;2024-02-21T04:52:01;8.80;99.90
56725;DHT22;42608;52.776;6.968;2024-02-21T04:54:26;8.80;99.90
56725;DHT22;42608;52.776;6.968;2024-02-21T04:56:52;8.80;99.90
56725;DHT22;42608;52.776;6.968;2024-02-21T04:59:17;8.80;99.90
56725;DHT22;42608;52.776;6.968;2024-02-21T05:01:49;8.80;99.90
56725;DHT22;42608;52.776;6.968;2024-02-21T05:04:14;8.80;99.90
56725;DHT22;42608;52.776;6.968;2024-02-21T05:06:43;8.80;99.90
56725;DHT22;42608;52.776;6.968;2024-02-21T05:09:09;8.80;99.90
56725;DHT22;42608;52.776;6.968;2024-02-21T05:11:37;8.80;99.90
56725;DHT22;42608;52.776;6.968;2024-02-21T05:14:06;8.80;99.90
56725;DHT22;42608;52.776;6.968;2024-02-21T05:16:32;8.80;99.90
56725;DHT22;42608;52.776;6.968;2024-02-21T05:18:57;8.80;99.90
56725;DHT22;42608;52.776;6.968;2024-02-21T05:21:23;8.80;99.90
56725;DHT22;42608;52.776;6.968;2024-02-21T05:23:49;8.80;99.90
56725;DHT22;42608;52.776;6.968;2024-02-21T05:26:24;8.90;99.90
56725;DHT22;42608;52.776;6.968;2024-02-21T05:28:50;8.80;99.90
56725;DHT22;42608;52.776;6.968;2024-02-21T05:31:16;8.90;99.90
56725;DHT22;42608;52.776;6.968;2024-02-21T05:33:42;8.90;99.90
56725;DHT22;42608;52.776;6.968;2024-02-21T05:36:08;8.90;99.90
56725;DHT22;42608;52.776;6.968;2024-02-21T05:38:33;8.90;99.90
56725;DHT22;42608;52.776;6.968;2024-02-21T05:40:59;8.90;99.90
56725;DHT22;42608;52.776;6.968;2024-02-21T05:43:24;8.90;99.90
56725;DHT22;42608;52.776;6.968;2024-02-21T05:45:50;8.90;99.90
56725;DHT22;42608;52.776;6.968;2024-02-21T05:48:15;8.90;99.90
56725;DHT22;42608;52.776;6.968;2024-02-21T05:50:41;8.90;99.90
56725;DHT22;42608;52.776;6.968;2024-02-21T05:53:07;8.90;99.90
56725;DHT22;42608;52.776;6.968;2024-02-21T05:55:32;8.90;99.90
56725;DHT22;42608;52.776;6.968;2024-02-21T05:57:58;8.90;99.90
56725;DHT22;42608;52.776;6.968;2024-02-21T06:00:23;8.90;99.90
56725;DHT22;42608;52.776;6.968;2024-02-21T06:02:49;8.90;99.90
56725;DHT22;42608;52.776;6.968;2024-02-21T06:05:15;8.90;99.90
56725;DHT22;42608;52.776;6.968;2024-02-21T06:07:40;8.90;99.90
56725;DHT22;42608;52.776;6.968;2024-02-21T06:10:06;8.90;99.90
56725;DHT22;42608;52.776;6.968;2024-02-21T06:12:32;8.90;99.90
56725;DHT22;42608;52.776;6.968;2024-02-21T06:15:00;8.90;99.90
56725;DHT22;42608;52.776;6.968;2024-02-21T06:17:26;8.90;99.90
56725;DHT22;42608;52.776;6.968;2024-02-21T06:19:51;8.90;99.90
56725;DHT22;42608;52.776;6.968;2024-02-21T06:22:17;8.90;99.90
56725;DHT22;42608;52.776;6.968;2024-02-21T06:24:45;8.80;99.90
56725;DHT22;42608;52.776;6.968;2024-02-21T06:27:11;8.90;99.90
56725;DHT22;42608;52.776;6.968;2024-02-21T06:29:37;8.90;99.90
56725;DHT22;42608;52.776;6.968;2024-02-21T06:32:03;8.90;99.90
56725;DHT22;42608;52.776;6.968;2024-02-21T06:34:31;8.90;99.90
56725;DHT22;42608;52.776;6.968;2024-02-21T06:36:57;8.80;99.90
56725;DHT22;42608;52.776;6.968;2024-02-21T06:39:22;8.90;99.90
56725;DHT22;42608;52.776;6.968;2024-02-21T06:41:49;8.90;99.90
56725;DHT22;42608;52.776;6.968;2024-02-21T06:44:19;8.90;99.90
56725;DHT22;42608;52.776;6.968;2024-02-21T06:46:47;8.90;99.90
56725;DHT22;42608;52.776;6.968;2024-02-21T06:49:20;8.80;99.90
56725;DHT22;42608;52.776;6.968;2024-02-21T06:51:48;8.90;99.90
56725;DHT22;42608;52.776;6.968;2024-02-21T06:54:14;8.90;99.90
56725;DHT22;42608;52.776;6.968;2024-02-21T06:56:40;8.90;99.90
56725;DHT22;42608;52.776;6.968;2024-02-21T06:59:05;8.90;99.90
56725;DHT22;42608;52.776;6.968;2024-02-21T07:01:31;8.90;99.90
56725;DHT22;42608;52.776;6.968;2024-02-21T07:04:07;8.90;99.90
56725;DHT22;42608;52.776;6.968;2024-02-21T07:06:33;8.90;99.90
56725;DHT22;42608;52.776;6.968;2024-02-21T07:08:58;8.90;99.90
56725;DHT22;42608;52.776;6.968;2024-02-21T07:11:24;8.90;99.90
56725;DHT22;42608;52.776;6.968;2024-02-21T07:13:49;8.90;99.90
56725;DHT22;42608;52.776;6.968;2024-02-21T07:16:15;8.90;99.90
56725;DHT22;42608;52.776;6.968;2024-02-21T07:18:40;8.90;99.90
56725;DHT22;42608;52.776;6.968;2024-02-21T07:21:06;8.90;99.90
56725;DHT22;42608;52.776;6.968;2024-02-21T07:23:32;8.90;99.90
56725;DHT22;42608;52.776;6.968;2024-02-21T07:25:57;8.80;99.90
56725;DHT22;42608;52.776;6.968;2024-02-21T07:28:23;8.80;99.90
56725;DHT22;42608;52.776;6.968;2024-02-21T07:30:51;8.80;99.90
56725;DHT22;42608;52.776;6.968;2024-02-21T07:33:17;8.80;99.90
56725;DHT22;42608;52.776;6.968;2024-02-21T07:35:43;8.80;99.90
56725;DHT22;42608;52.776;6.968;2024-02-21T07:38:10;8.80;99.90
56725;DHT22;42608;52.776;6.968;2024-02-21T07:40:37;8.80;99.90
56725;DHT22;42608;52.776;6.968;2024-02-21T07:43:03;8.80;99.90
56725;DHT22;42608;52.776;6.968;2024-02-21T07:45:28;8.80;99.90
56725;DHT22;42608;52.776;6.968;2024-02-21T07:47:54;8.70;99.90
56725;DHT22;42608;52.776;6.968;2024-02-21T07:50:22;8.70;99.90
56725;DHT22;42608;52.776;6.968;2024-02-21T07:52:48;8.70;99.90
56725;DHT22;42608;52.776;6.968;2024-02-21T07:55:13;8.70;99.90
56725;DHT22;42608;52.776;6.968;2024-02-21T07:57:39;8.70;99.90
56725;DHT22;42608;52.776;6.968;2024-02-21T08:00:05;8.70;99.90
56725;DHT22;42608;52.776;6.968;2024-02-21T08:02:30;8.70;99.90
56725;DHT22;42608;52.776;6.968;2024-02-21T08:04:56;8.70;99.90
56725;DHT22;42608;52.776;6.968;2024-02-21T08:07:22;8.70;99.90
56725;DHT22;42608;52.776;6.968;2024-02-21T08:09:47;8.70;99.90
56725;DHT22;42608;52.776;6.968;2024-02-21T08:12:13;8.70;99.90
56725;DHT22;42608;52.776;6.968;2024-02-21T08:14:38;8.70;99.90
56725;DHT22;42608;52.776;6.968;2024-02-21T08:17:04;8.70;99.90
56725;DHT22;42608;52.776;6.968;2024-02-21T08:19:36;8.70;99.90
56725;DHT22;42608;52.776;6.968;2024-02-21T08:22:01;8.70;99.90
56725;DHT22;42608;52.776;6.968;2024-02-21T08:24:27;8.70;99.90
56725;DHT22;42608;52.776;6.968;2024-02-21T08:26:52;8.70;99.90
56725;DHT22;42608;52.776;6.968;2024-02-21T08:29:25;8.70;99.90
56725;DHT22;42608;52.776;6.968;2024-02-21T08:31:50;8.70;99.90
56725;DHT22;42608;52.776;6.968;2024-02-21T08:34:16;8.70;99.90
56725;DHT22;42608;52.776;6.968;2024-02-21T08:36:42;8.70;99.90
56725;DHT22;42608;52.776;6.968;2024-02-21T08:39:11;8.70;99.90
56725;DHT22;42608;52.776;6.968;2024-02-21T08:41:36;8.70;99.90
56725;DHT22;42608;52.776;6.968;2024-02-21T08:44:02;8.70;99.90
56725;DHT22;42608;52.776;6.968;2024-02-21T08:46:28;8.70;99.90
56725;DHT22;42608;52.776;6.968;2024-02-21T08:48:54;8.70;99.90
56725;DHT22;42608;52.776;6.968;2024-02-21T08:51:19;8.70;99.90
56725;DHT22;42608;52.776;6.968;2024-02-21T08:53:45;8.70;99.90
56725;DHT22;42608;52.776;6.968;2024-02-21T08:56:11;8.80;99.90
56725;DHT22;42608;52.776;6.968;2024-02-21T08:58:37;8.80;99.90
56725;DHT22;42608;52.776;6.968;2024-02-21T09:01:03;8.80;99.90
56725;DHT22;42608;52.776;6.968;2024-02-21T09:03:32;8.80;99.90
56725;DHT22;42608;52.776;6.968;2024-02-21T09:05:58;8.80;99.90
56725;DHT22;42608;52.776;6.968;2024-02-21T09:08:24;8.80;99.90
56725;DHT22;42608;52.776;6.968;2024-02-21T09:10:50;8.80;99.90
56725;DHT22;42608;52.776;6.968;2024-02-21T09:13:21;8.90;99.90
56725;DHT22;42608;52.776;6.968;2024-02-21T09:15:47;8.80;99.90
56725;DHT22;42608;52.776;6.968;2024-02-21T09:18:14;8.90;99.90
56725;DHT22;42608;52.776;6.968;2024-02-21T09:20:39;8.90;99.90
56725;DHT22;42608;52.776;6.968;2024-02-21T09:23:05;8.90;99.90
56725;DHT22;42608;52.776;6.968;2024-02-21T09:25:30;8.90;99.90
56725;DHT22;42608;52.776;6.968;2024-02-21T09:27:57;8.90;99.90
56725;DHT22;42608;52.776;6.968;2024-02-21T09:30:24;8.90;99.90
56725;DHT22;42608;52.776;6.968;2024-02-21T09:32:49;8.90;99.90
56725;DHT22;42608;52.776;6.968;2024-02-21T09:35:15;8.90;99.90
56725;DHT22;42608;52.776;6.968;2024-02-21T09:37:41;8.90;99.90
56725;DHT22;42608;52.776;6.968;2024-02-21T09:40:06;9.00;99.90
56725;DHT22;42608;52.776;6.968;2024-02-21T09:42:36;8.90;99.90
56725;DHT22;42608;52.776;6.968;2024-02-21T09:45:25;9.00;99.90
56725;DHT22;42608;52.776;6.968;2024-02-21T09:48:03;9.00;99.90
56725;DHT22;42608;52.776;6.968;2024-02-21T09:50:32;9.00;99.90
56725;DHT22;42608;52.776;6.968;2024-02-21T09:52:59;9.00;99.90
56725;DHT22;42608;52.776;6.968;2024-02-21T09:55:29;9.00;99.90
56725;DHT22;42608;52.776;6.968;2024-02-21T09:57:55;9.00;99.90
56725;DHT22;42608;52.776;6.968;2024-02-21T10:00:22;9.00;99.90
56725;DHT22;42608;52.776;6.968;2024-02-21T10:02:50;9.00;99.90
56725;DHT22;42608;52.776;6.968;2024-02-21T10:05:16;9.10;99.90
56725;DHT22;42608;52.776;6.968;2024-02-21T10:07:43;9.10;99.90
56725;DHT22;42608;52.776;6.968;2024-02-21T10:10:09;9.10;99.90
56725;DHT22;42608;52.776;6.968;2024-02-21T10:12:48;9.10;99.90
56725;DHT22;42608;52.776;6.968;2024-02-21T10:15:13;9.10;99.90
56725;DHT22;42608;52.776;6.968;2024-02-21T10:17:40;9.10;99.90
56725;DHT22;42608;52.776;6.968;2024-02-21T10:20:06;9.10;99.90
56725;DHT22;42608;52.776;6.968;2024-02-21T10:22:32;9.10;99.90
56725;DHT22;42608;52.776;6.968;2024-02-21T10:25:10;9.10;99.90
56725;DHT22;42608;52.776;6.968;2024-02-21T10:27:39;9.10;99.90
56725;DHT22;42608;52.776;6.968;2024-02-21T10:30:12;9.20;99.90
56725;DHT22;42608;52.776;6.968;2024-02-21T10:32:50;9.20;99.90
56725;DHT22;42608;52.776;6.968;2024-02-21T10:35:27;9.20;99.90
56725;DHT22;42608;52.776;6.968;2024-02-21T10:37:55;9.20;99.90
56725;DHT22;42608;52.776;6.968;2024-02-21T10:40:25;9.20;99.90
56725;DHT22;42608;52.776;6.968;2024-02-21T10:42:52;9.20;99.90
56725;DHT22;42608;52.776;6.968;2024-02-21T10:45:21;9.20;99.90
56725;DHT22;42608;52.776;6.968;2024-02-21T10:47:48;9.30;99.90
56725;DHT22;42608;52.776;6.968;2024-02-21T10:50:17;9.30;99.90
56725;DHT22;42608;52.776;6.968;2024-02-21T10:52:51;9.30;99.90
56725;DHT22;42608;52.776;6.968;2024-02-21T10:55:20;9.30;99.90
56725;DHT22;42608;52.776;6.968;2024-02-21T10:57:50;9.40;99.90
56725;DHT22;42608;52.776;6.968;2024-02-21T11:00:17;9.40;99.90
56725;DHT22;42608;52.776;6.968;2024-02-21T11:02:43;9.40;99.90
56725;DHT22;42608;52.776;6.968;2024-02-21T11:05:09;9.40;99.90
56725;DHT22;42608;52.776;6.968;2024-02-21T11:07:35;9.40;99.90
56725;DHT22;42608;52.776;6.968;2024-02-21T11:10:01;9.50;99.90
56725;DHT22;42608;52.776;6.968;2024-02-21T11:12:28;9.50;99.90
56725;DHT22;42608;52.776;6.968;2024-02-21T11:15:03;9.50;99.90
56725;DHT22;42608;52.776;6.968;2024-02-21T11:17:30;9.60;99.90
56725;DHT22;42608;52.776;6.968;2024-02-21T11:19:58;9.60;99.90
56725;DHT22;42608;52.776;6.968;2024-02-21T11:22:40;9.60;99.90
56725;DHT22;42608;52.776;6.968;2024-02-21T11:25:06;9.70;99.90
56725;DHT22;42608;52.776;6.968;2024-02-21T11:27:35;9.60;99.90
56725;DHT22;42608;52.776;6.968;2024-02-21T11:30:03;9.60;99.90
56725;DHT22;42608;52.776;6.968;2024-02-21T11:32:30;9.60;99.90
56725;DHT22;42608;52.776;6.968;2024-02-21T11:35:00;9.60;99.90
56725;DHT22;42608;52.776;6.968;2024-02-21T11:37:27;9.60;99.90
56725;DHT22;42608;52.776;6.968;2024-02-21T11:39:53;9.60;99.90
56725;DHT22;42608;52.776;6.968;2024-02-21T11:42:19;9.70;99.90
56725;DHT22;42608;52.776;6.968;2024-02-21T11:44:45;9.70;99.90
56725;DHT22;42608;52.776;6.968;2024-02-21T11:47:11;9.70;99.90
56725;DHT22;42608;52.776;6.968;2024-02-21T11:49:37;9.70;99.90
56725;DHT22;42608;52.776;6.968;2024-02-21T11:52:04;9.70;99.90
56725;DHT22;42608;52.776;6.968;2024-02-21T11:54:30;9.70;99.90
56725;DHT22;42608;52.776;6.968;2024-02-21T11:56:55;9.70;99.90
56725;DHT22;42608;52.776;6.968;2024-02-21T11:59:21;9.70;99.90
56725;DHT22;42608;52.776;6.968;2024-02-21T12:01:48;9.70;99.90
56725;DHT22;42608;52.776;6.968;2024-02-21T12:04:13;9.70;99.90
56725;DHT22;42608;52.776;6.968;2024-02-21T12:06:40;9.70;99.90
56725;DHT22;42608;52.776;6.968;2024-02-21T12:09:07;9.70;99.90
56725;DHT22;42608;52.776;6.968;2024-02-21T12:11:34;9.70;99.90
56725;DHT22;42608;52.776;6.968;2024-02-21T12:14:00;9.80;99.90
56725;DHT22;42608;52.776;6.968;2024-02-21T12:16:33;9.80;99.90
56725;DHT22;42608;52.776;6.968;2024-02-21T12:18:59;9.80;99.90
56725;DHT22;42608;52.776;6.968;2024-02-21T12:21:32;9.80;99.90
56725;DHT22;42608;52.776;6.968;2024-02-21T12:23:58;9.80;99.90
56725;DHT22;42608;52.776;6.968;2024-02-21T12:26:24;9.80;99.90
56725;DHT22;42608;52.776;6.968;2024-02-21T12:28:50;9.80;99.90
56725;DHT22;42608;52.776;6.968;2024-02-21T12:31:22;9.80;99.90
56725;DHT22;42608;52.776;6.968;2024-02-21T12:33:48;9.80;99.90
56725;DHT22;42608;52.776;6.968;2024-02-21T12:36:13;9.80;99.90
56725;DHT22;42608;52.776;6.968;2024-02-21T12:38:42;9.80;99.90
56725;DHT22;42608;52.776;6.968;2024-02-21T12:41:09;9.80;99.90
56725;DHT22;42608;52.776;6.968;2024-02-21T12:43:34;9.90;99.90
56725;DHT22;42608;52.776;6.968;2024-02-21T12:46:00;9.90;99.90
56725;DHT22;42608;52.776;6.968;2024-02-21T12:48:25;9.90;99.90
56725;DHT22;42608;52.776;6.968;2024-02-21T12:50:54;9.90;99.90
56725;DHT22;42608;52.776;6.968;2024-02-21T12:53:19;9.80;99.90
56725;DHT22;42608;52.776;6.968;2024-02-21T12:55:47;9.90;99.90
56725;DHT22;42608;52.776;6.968;2024-02-21T12:58:14;9.90;99.90
56725;DHT22;42608;52.776;6.968;2024-02-21T13:00:39;9.90;99.90
56725;DHT22;42608;52.776;6.968;2024-02-21T13:03:05;9.90;99.90
56725;DHT22;42608;52.776;6.968;2024-02-21T13:05:31;9.80;99.90
56725;DHT22;42608;52.776;6.968;2024-02-21T13:07:57;9.90;99.90
56725;DHT22;42608;52.776;6.968;2024-02-21T13:10:23;9.80;99.90
56725;DHT22;42608;52.776;6.968;2024-02-21T13:12:49;9.80;99.90
56725;DHT22;42608;52.776;6.968;2024-02-21T13:15:14;9.80;99.90
56725;DHT22;42608;52.776;6.968;2024-02-21T13:17:41;9.80;99.90
56725;DHT22;42608;52.776;6.968;2024-02-21T13:20:10;9.70;99.90
56725;DHT22;42608;52.776;6.968;2024-02-21T13:22:36;9.70;99.90
56725;DHT22;42608;52.776;6.968;2024-02-21T13:25:02;9.70;99.90
56725;DHT22;42608;52.776;6.968;2024-02-21T13:27:28;9.70;99.90
56725;DHT22;42608;52.776;6.968;2024-02-21T13:29:53;9.80;99.90
56725;DHT22;42608;52.776;6.968;2024-02-21T13:32:19;9.80;99.90
56725;DHT22;42608;52.776;6.968;2024-02-21T13:34:44;9.70;99.90
56725;DHT22;42608;52.776;6.968;2024-02-21T13:37:10;9.80;99.90
56725;DHT22;42608;52.776;6.968;2024-02-21T13:39:36;9.70;99.90
56725;DHT22;42608;52.776;6.968;2024-02-21T13:42:02;9.80;99.90
56725;DHT22;42608;52.776;6.968;2024-02-21T13:44:30;9.80;99.90
56725;DHT22;42608;52.776;6.968;2024-02-21T13:46:55;9.80;99.90
56725;DHT22;42608;52.776;6.968;2024-02-21T13:49:23;9.80;99.90
56725;DHT22;42608;52.776;6.968;2024-02-21T13:51:49;9.80;99.90
56725;DHT22;42608;52.776;6.968;2024-02-21T13:54:18;9.80;99.90
56725;DHT22;42608;52.776;6.968;2024-02-21T13:56:45;9.80;99.90
56725;DHT22;42608;52.776;6.968;2024-02-21T13:59:11;9.80;99.90
56725;DHT22;42608;52.776;6.968;2024-02-21T14:01:38;9.80;99.90
56725;DHT22;42608;52.776;6.968;2024-02-21T14:04:04;9.80;99.90
56725;DHT22;42608;52.776;6.968;2024-02-21T14:06:29;9.80;99.90
56725;DHT22;42608;52.776;6.968;2024-02-21T14:08:55;9.80;99.90
56725;DHT22;42608;52.776;6.968;2024-02-21T14:11:20;9.80;99.90
56725;DHT22;42608;52.776;6.968;2024-02-21T14:13:49;9.80;99.90
56725;DHT22;42608;52.776;6.968;2024-02-21T14:16:15;9.80;99.90
56725;DHT22;42608;52.776;6.968;2024-02-21T14:18:40;9.80;99.90
56725;DHT22;42608;52.776;6.968;2024-02-21T14:21:09;9.80;99.90
56725;DHT22;42608;52.776;6.968;2024-02-21T14:23:36;9.80;99.90
56725;DHT22;42608;52.776;6.968;2024-02-21T14:26:03;9.80;99.90
56725;DHT22;42608;52.776;6.968;2024-02-21T14:28:28;9.80;99.90
56725;DHT22;42608;52.776;6.968;2024-02-21T14:30:54;9.80;99.90
56725;DHT22;42608;52.776;6.968;2024-02-21T14:33:23;9.80;99.90
56725;DHT22;42608;52.776;6.968;2024-02-21T14:35:49;9.80;99.90
56725;DHT22;42608;52.776;6.968;2024-02-21T14:38:14;9.80;99.90
56725;DHT22;42608;52.776;6.968;2024-02-21T14:40:40;9.70;99.90
56725;DHT22;42608;52.776;6.968;2024-02-21T14:43:05;9.80;99.90
56725;DHT22;42608;52.776;6.968;2024-02-21T14:45:31;9.80;99.90
56725;DHT22;42608;52.776;6.968;2024-02-21T14:47:57;9.70;99.90
56725;DHT22;42608;52.776;6.968;2024-02-21T14:50:22;9.70;99.90
56725;DHT22;42608;52.776;6.968;2024-02-21T14:52:48;9.70;99.90
56725;DHT22;42608;52.776;6.968;2024-02-21T14:55:14;9.70;99.90
56725;DHT22;42608;52.776;6.968;2024-02-21T14:57:40;9.70;99.90
56725;DHT22;42608;52.776;6.968;2024-02-21T15:00:08;9.70;99.90
56725;DHT22;42608;52.776;6.968;2024-02-21T15:02:34;9.70;99.90
56725;DHT22;42608;52.776;6.968;2024-02-21T15:05:00;9.70;99.90
56725;DHT22;42608;52.776;6.968;2024-02-21T15:07:26;9.70;99.90
56725;DHT22;42608;52.776;6.968;2024-02-21T15:09:53;9.70;99.90
56725;DHT22;42608;52.776;6.968;2024-02-21T15:12:18;9.70;99.90
56725;DHT22;42608;52.776;6.968;2024-02-21T15:14:44;9.70;99.90
56725;DHT22;42608;52.776;6.968;2024-02-21T15:17:10;9.70;99.90
56725;DHT22;42608;52.776;6.968;2024-02-21T15:19:36;9.70;99.90
56725;DHT22;42608;52.776;6.968;2024-02-21T15:22:04;9.70;99.90
56725;DHT22;42608;52.776;6.968;2024-02-21T15:24:29;9.70;99.90
56725;DHT22;42608;52.776;6.968;2024-02-21T15:26:55;9.70;99.90
56725;DHT22;42608;52.776;6.968;2024-02-21T15:29:21;9.70;99.90
56725;DHT22;42608;52.776;6.968;2024-02-21T15:31:48;9.70;99.90
56725;DHT22;42608;52.776;6.968;2024-02-21T15:34:14;9.70;99.90
56725;DHT22;42608;52.776;6.968;2024-02-21T15:36:43;9.70;99.90
56725;DHT22;42608;52.776;6.968;2024-02-21T15:39:12;9.80;99.90
56725;DHT22;42608;52.776;6.968;2024-02-21T15:41:37;9.70;99.90